Time;durP1;ratioP1;P1;durP2;ratioP2;P2;SDS_P1;SDS_P2;PMS_P1;PMS_P2;Temp;Humidity;BMP_temperature;BMP_pressure;BME280_temperature;BME280_humidity;BME280_pressure;Samples;Min_cycle;Max_cycle;Signal;HPM_P1;HPM_P2
2023/03/03 00:01:26;;;;;;;;;;;;;;;5.06;66.75;102438.63;4989403;28;20680;-74
2023/03/03 00:03:52;;;;;;;;;;;;;;;5.03;66.58;102436.69;4989512;28;19949;-75
2023/03/03 00:06:18;;;;;;;;;;;;;;;5.03;66.52;102446.00;4971103;28;19917;-75
2023/03/03 00:08:43;;;;;;;;;;;;;;;5.03;66.67;102449.44;4989443;28;19922;-75
2023/03/03 00:11:09;;;;;;;;;;;;;;;5.01;67.19;102445.03;4989536;28;19957;-75
2023/03/03 00:13:43;;;;;;;;;;;;;;;5.00;67.45;102458.53;4989507;28;19918;-75
2023/03/03 00:16:21;;;;;;;;;;;;;;;4.98;68.03;102461.00;4988632;28;20331;-75
2023/03/03 00:18:47;;;;;;;;;;;;;;;4.98;70.29;102460.09;4988996;28;20010;-75
2023/03/03 00:21:19;;;;;;;;;;;;;;;4.95;70.09;102452.19;4988549;28;20336;-75
2023/03/03 00:23:44;;;;;;;;;;;;;;;4.90;72.58;102468.81;4988946;28;20381;-73
2023/03/03 00:26:25;;;;;;;;;;;;;;;4.77;71.93;102454.25;4989445;28;19914;-73
2023/03/03 00:28:53;;;;;;;;;;;;;;;4.68;73.88;102468.84;4984179;28;20013;-73
2023/03/03 00:31:20;;;;;;;;;;;;;;;4.60;72.45;102457.16;4989434;28;19918;-74
2023/03/03 00:33:49;;;;;;;;;;;;;;;4.62;72.34;102463.25;4988697;28;20012;-74
2023/03/03 00:36:15;;;;;;;;;;;;;;;4.62;72.41;102455.63;4988644;28;19928;-75
2023/03/03 00:38:41;;;;;;;;;;;;;;;4.61;73.28;102461.47;4988469;28;19914;-74
2023/03/03 00:41:15;;;;;;;;;;;;;;;4.57;74.19;102465.44;4988721;28;19968;-74
2023/03/03 00:43:41;;;;;;;;;;;;;;;4.48;74.23;102469.81;4988524;28;19925;-74
2023/03/03 00:46:08;;;;;;;;;;;;;;;4.39;73.99;102461.47;4989265;28;19922;-74
2023/03/03 00:48:36;;;;;;;;;;;;;;;4.34;73.81;102462.75;4986923;28;19956;-73
2023/03/03 00:51:09;;;;;;;;;;;;;;;4.29;75.23;102460.72;4987509;28;19918;-74
2023/03/03 00:53:35;;;;;;;;;;;;;;;4.19;76.64;102459.91;4987320;28;19913;-74
2023/03/03 00:56:00;;;;;;;;;;;;;;;4.18;76.30;102463.19;4986147;28;19936;-74
2023/03/03 00:58:26;;;;;;;;;;;;;;;4.20;76.76;102469.31;4989022;28;20016;-74
2023/03/03 01:00:52;;;;;;;;;;;;;;;4.15;76.32;102474.03;4987882;28;20406;-73
2023/03/03 01:03:19;;;;;;;;;;;;;;;4.17;76.17;102474.16;4990474;28;19953;-74
2023/03/03 01:05:45;;;;;;;;;;;;;;;4.18;76.18;102469.19;4992153;28;19953;-74
2023/03/03 01:08:10;;;;;;;;;;;;;;;4.24;75.16;102481.50;4990681;28;20650;-72
2023/03/03 01:10:40;;;;;;;;;;;;;;;4.25;76.92;102484.19;4974923;28;19918;-73
2023/03/03 01:13:06;;;;;;;;;;;;;;;4.26;75.99;102480.88;4992136;28;20316;-73
2023/03/03 01:15:31;;;;;;;;;;;;;;;4.25;75.69;102476.56;4992591;28;20020;-73
2023/03/03 01:17:57;;;;;;;;;;;;;;;4.21;76.23;102481.28;4991606;28;19997;-73
2023/03/03 01:20:22;;;;;;;;;;;;;;;4.15;77.34;102478.25;4992151;28;19922;-74
2023/03/03 01:22:47;;;;;;;;;;;;;;;4.09;76.43;102478.66;4991828;28;19929;-74
2023/03/03 01:25:13;;;;;;;;;;;;;;;4.08;76.26;102479.41;4992290;28;20414;-73
2023/03/03 01:27:38;;;;;;;;;;;;;;;4.13;75.37;102477.25;4991722;28;19933;-74
2023/03/03 01:30:04;;;;;;;;;;;;;;;4.20;74.79;102474.41;4992335;28;19922;-74
2023/03/03 01:32:29;;;;;;;;;;;;;;;4.24;74.64;102490.03;4992351;28;20336;-74
2023/03/03 01:34:55;;;;;;;;;;;;;;;4.27;75.44;102487.75;4991005;28;19969;-74
2023/03/03 01:37:20;;;;;;;;;;;;;;;4.21;77.24;102491.47;4990826;28;20336;-74
2023/03/03 01:39:49;;;;;;;;;;;;;;;4.13;76.53;102484.88;4991062;28;19969;-74
2023/03/03 01:42:15;;;;;;;;;;;;;;;4.07;77.66;102485.28;4992571;28;19992;-74
2023/03/03 01:44:40;;;;;;;;;;;;;;;3.95;77.94;102487.72;4991743;28;19926;-74
2023/03/03 01:47:05;;;;;;;;;;;;;;;3.80;78.47;102489.03;4990661;28;20332;-73
2023/03/03 01:49:38;;;;;;;;;;;;;;;3.75;77.01;102488.63;4991437;28;19926;-73
2023/03/03 01:52:09;;;;;;;;;;;;;;;3.78;78.07;102493.09;4991609;28;19936;-73
2023/03/03 01:54:38;;;;;;;;;;;;;;;3.84;76.14;102495.25;4988502;28;19918;-74
2023/03/03 01:57:05;;;;;;;;;;;;;;;3.91;76.62;102482.25;4990888;28;19925;-74
2023/03/03 01:59:33;;;;;;;;;;;;;;;3.92;76.62;102497.66;4991392;28;19971;-74
2023/03/03 02:01:58;;;;;;;;;;;;;;;3.79;78.30;102494.88;4986927;28;19937;-74
2023/03/03 02:04:25;;;;;;;;;;;;;;;3.62;78.40;102492.63;4989421;28;19918;-73
2023/03/03 02:06:53;;;;;;;;;;;;;;;3.56;78.33;102497.19;4988762;28;19918;-74
2023/03/03 02:09:36;;;;;;;;;;;;;;;3.55;77.77;102496.31;4985676;28;19918;-74
2023/03/03 02:12:04;;;;;;;;;;;;;;;3.55;77.68;102491.22;4987230;28;19949;-73
2023/03/03 02:14:29;;;;;;;;;;;;;;;3.58;77.76;102496.56;4969705;28;19992;-74
2023/03/03 02:16:54;;;;;;;;;;;;;;;3.60;78.01;102494.16;4990727;28;20292;-74
2023/03/03 02:19:29;;;;;;;;;;;;;;;3.61;77.05;102490.84;4990656;28;20343;-73
2023/03/03 02:21:54;;;;;;;;;;;;;;;3.65;76.97;102495.41;4990760;28;19996;-73
2023/03/03 02:24:41;;;;;;;;;;;;;;;3.67;77.77;102501.50;4989519;28;20685;-74
2023/03/03 02:27:07;;;;;;;;;;;;;;;3.47;78.41;102498.22;4991293;28;19966;-74
2023/03/03 02:29:32;;;;;;;;;;;;;;;3.35;78.78;102506.50;4989483;28;19930;-74
2023/03/03 02:31:57;;;;;;;;;;;;;;;3.18;78.89;102503.44;4989669;28;19928;-73
2023/03/03 02:34:23;;;;;;;;;;;;;;;3.09;80.19;102505.19;4990377;28;19929;-73
2023/03/03 02:36:48;;;;;;;;;;;;;;;3.01;80.55;102506.19;4991506;28;19926;-73
2023/03/03 02:39:21;;;;;;;;;;;;;;;2.94;80.54;102496.28;4989653;28;20368;-73
2023/03/03 02:42:06;;;;;;;;;;;;;;;2.85;81.08;102491.31;4990191;28;20406;-73
2023/03/03 02:44:32;;;;;;;;;;;;;;;2.88;80.67;102498.31;4990331;28;20255;-74
2023/03/03 02:46:58;;;;;;;;;;;;;;;2.95;79.95;102488.78;4990545;28;19972;-73
2023/03/03 02:49:25;;;;;;;;;;;;;;;2.98;80.61;102498.34;4989254;28;20281;-73
2023/03/03 02:51:51;;;;;;;;;;;;;;;3.01;79.82;102495.16;4974011;28;20283;-73
2023/03/03 02:54:17;;;;;;;;;;;;;;;3.06;79.49;102492.22;4990234;28;19921;-73
2023/03/03 02:56:43;;;;;;;;;;;;;;;3.12;79.48;102486.78;4989743;28;19976;-74
2023/03/03 02:59:09;;;;;;;;;;;;;;;3.21;78.31;102498.59;4990448;28;20411;-74
2023/03/03 03:01:37;;;;;;;;;;;;;;;3.30;78.79;102492.50;4990183;28;19925;-73
2023/03/03 03:04:05;;;;;;;;;;;;;;;3.36;78.22;102485.38;4990259;28;20394;-74
2023/03/03 03:06:30;;;;;;;;;;;;;;;3.42;78.23;102488.44;4988304;28;19917;-73
2023/03/03 03:08:56;;;;;;;;;;;;;;;3.50;77.63;102497.56;4990590;28;20382;-74
2023/03/03 03:11:21;;;;;;;;;;;;;;;3.54;77.47;102489.44;4988029;28;19929;-73
2023/03/03 03:13:46;;;;;;;;;;;;;;;3.55;78.01;102491.22;4988818;28;19922;-74
2023/03/03 03:16:11;;;;;;;;;;;;;;;3.52;78.15;102490.06;4988817;28;19934;-74
2023/03/03 03:18:37;;;;;;;;;;;;;;;3.52;77.58;102500.25;4989897;28;19928;-74
2023/03/03 03:21:06;;;;;;;;;;;;;;;3.53;77.15;102508.03;4990443;28;19933;-75
2023/03/03 03:23:32;;;;;;;;;;;;;;;3.53;77.33;102509.69;4990155;28;19983;-74
2023/03/03 03:25:58;;;;;;;;;;;;;;;3.52;77.74;102510.41;4989329;28;19948;-74
2023/03/03 03:28:23;;;;;;;;;;;;;;;3.44;78.13;102510.69;4989149;28;20403;-74
2023/03/03 03:30:49;;;;;;;;;;;;;;;3.38;77.99;102517.78;4989445;28;19933;-74
2023/03/03 03:33:15;;;;;;;;;;;;;;;3.36;77.91;102513.34;4986388;28;19925;-74
2023/03/03 03:35:44;;;;;;;;;;;;;;;3.33;78.79;102515.63;4986056;28;20444;-74
2023/03/03 03:38:09;;;;;;;;;;;;;;;3.35;77.91;102519.22;4989046;28;19929;-74
2023/03/03 03:40:34;;;;;;;;;;;;;;;3.33;78.15;102511.44;4988485;28;19922;-73
2023/03/03 03:43:00;;;;;;;;;;;;;;;3.33;78.47;102524.16;4957118;28;19925;-74
2023/03/03 03:45:25;;;;;;;;;;;;;;;3.24;78.61;102513.22;4971198;28;19968;-74
2023/03/03 03:47:50;;;;;;;;;;;;;;;3.18;78.42;102508.50;4988553;28;20384;-74
2023/03/03 03:50:16;;;;;;;;;;;;;;;3.10;79.69;102512.06;4988979;28;20021;-74
2023/03/03 03:52:42;;;;;;;;;;;;;;;3.09;78.92;102510.25;4989350;28;19944;-73
2023/03/03 03:55:08;;;;;;;;;;;;;;;3.12;79.08;102507.13;4989634;28;19934;-73
2023/03/03 03:57:33;;;;;;;;;;;;;;;3.20;78.83;102516.25;4986628;28;19974;-73
2023/03/03 03:59:58;;;;;;;;;;;;;;;3.23;77.72;102519.97;4972172;28;19930;-74
2023/03/03 04:02:23;;;;;;;;;;;;;;;3.29;78.25;102522.13;4986994;28;19968;-73
2023/03/03 04:04:49;;;;;;;;;;;;;;;3.33;77.46;102515.63;4987157;28;19937;-74
2023/03/03 04:07:14;;;;;;;;;;;;;;;3.34;77.89;102525.06;4989085;28;20001;-73
2023/03/03 04:09:39;;;;;;;;;;;;;;;3.32;78.02;102524.03;4989036;28;19926;-73
2023/03/03 04:12:05;;;;;;;;;;;;;;;3.31;77.89;102524.78;4989294;28;19980;-74
2023/03/03 04:14:30;;;;;;;;;;;;;;;3.34;77.20;102531.03;4988811;28;19922;-74
2023/03/03 04:16:55;;;;;;;;;;;;;;;3.36;78.62;102528.63;4989684;28;19977;-74
2023/03/03 04:19:20;;;;;;;;;;;;;;;3.20;79.43;102522.22;4970732;28;20376;-74
2023/03/03 04:21:46;;;;;;;;;;;;;;;3.08;79.54;102517.78;4970198;28;19932;-74
2023/03/03 04:24:11;;;;;;;;;;;;;;;3.03;79.91;102521.56;4989052;28;19957;-74
2023/03/03 04:26:36;;;;;;;;;;;;;;;2.96;80.52;102527.78;4988788;28;19921;-73
2023/03/03 04:29:02;;;;;;;;;;;;;;;2.93;80.38;102520.81;4989666;28;19926;-74
2023/03/03 04:31:27;;;;;;;;;;;;;;;2.98;80.07;102525.41;4988432;28;19921;-74
2023/03/03 04:33:52;;;;;;;;;;;;;;;2.99;80.90;102522.97;4989625;28;19933;-74
2023/03/03 04:36:18;;;;;;;;;;;;;;;3.04;80.32;102518.28;4970039;28;19961;-74
2023/03/03 04:38:43;;;;;;;;;;;;;;;3.04;79.91;102526.81;4991204;28;21196;-74
2023/03/03 04:41:09;;;;;;;;;;;;;;;3.03;79.83;102522.47;4992837;28;20423;-74
2023/03/03 04:43:34;;;;;;;;;;;;;;;3.04;80.10;102521.72;4991361;28;19934;-74
2023/03/03 04:45:59;;;;;;;;;;;;;;;3.07;80.35;102523.63;4993826;28;20597;-74
2023/03/03 04:48:24;;;;;;;;;;;;;;;3.11;79.66;102518.94;4992304;28;19929;-74
2023/03/03 04:50:50;;;;;;;;;;;;;;;3.17;79.40;102532.16;4974801;28;19922;-74
2023/03/03 04:53:15;;;;;;;;;;;;;;;3.20;80.42;102532.41;4992068;28;19922;-74
2023/03/03 04:55:40;;;;;;;;;;;;;;;3.17;80.16;102528.72;4991373;28;20280;-74
2023/03/03 04:58:06;;;;;;;;;;;;;;;3.14;80.20;102531.88;4992983;28;19922;-74
2023/03/03 05:00:31;;;;;;;;;;;;;;;3.09;80.27;102533.13;4984723;28;20008;-74
2023/03/03 05:02:57;;;;;;;;;;;;;;;3.12;79.93;102530.00;4989822;28;20624;-74
2023/03/03 05:05:22;;;;;;;;;;;;;;;3.16;79.41;102540.56;4990949;28;19924;-75
2023/03/03 05:07:47;;;;;;;;;;;;;;;3.18;79.49;102533.94;4991991;28;20376;-75
2023/03/03 05:10:12;;;;;;;;;;;;;;;3.25;79.46;102537.00;4992089;28;19988;-75
2023/03/03 05:12:38;;;;;;;;;;;;;;;3.25;79.69;102531.91;4991976;28;20427;-74
2023/03/03 05:15:03;;;;;;;;;;;;;;;3.21;79.60;102543.47;4991819;28;19996;-74
2023/03/03 05:17:29;;;;;;;;;;;;;;;3.21;79.50;102541.81;4992166;28;19926;-75
2023/03/03 05:19:56;;;;;;;;;;;;;;;3.24;80.07;102541.19;4992221;28;19968;-75
2023/03/03 05:22:21;;;;;;;;;;;;;;;3.27;78.83;102543.09;4989792;28;19929;-74
2023/03/03 05:24:48;;;;;;;;;;;;;;;3.28;79.65;102548.31;4974578;28;19924;-75
2023/03/03 05:27:13;;;;;;;;;;;;;;;3.28;79.52;102537.25;4988139;28;19952;-74
2023/03/03 05:29:38;;;;;;;;;;;;;;;3.29;79.01;102536.50;4991048;28;19929;-74
2023/03/03 05:32:04;;;;;;;;;;;;;;;3.34;78.67;102535.25;4972082;28;20487;-74
2023/03/03 05:34:29;;;;;;;;;;;;;;;3.39;78.54;102541.56;4986282;28;20458;-75
2023/03/03 05:36:54;;;;;;;;;;;;;;;3.40;78.50;102540.84;4990150;28;19972;-74
2023/03/03 05:39:19;;;;;;;;;;;;;;;3.43;78.40;102541.06;4989288;28;19922;-74
2023/03/03 05:41:45;;;;;;;;;;;;;;;3.48;78.99;102542.34;4988478;28;19922;-74
2023/03/03 05:44:10;;;;;;;;;;;;;;;3.50;78.11;102543.34;4989705;28;19949;-74
2023/03/03 05:46:35;;;;;;;;;;;;;;;3.56;78.26;102538.78;4988115;28;20315;-74
2023/03/03 05:49:01;;;;;;;;;;;;;;;3.62;77.89;102549.47;4988896;28;20315;-74
2023/03/03 05:51:26;;;;;;;;;;;;;;;3.63;77.88;102543.59;4970588;28;19921;-74
2023/03/03 05:53:51;;;;;;;;;;;;;;;3.66;77.81;102541.34;4988926;28;20301;-75
2023/03/03 05:56:16;;;;;;;;;;;;;;;3.62;78.61;102541.84;4991422;28;19975;-75
2023/03/03 05:58:42;;;;;;;;;;;;;;;3.51;78.20;102545.13;4991529;28;19922;-75
2023/03/03 06:01:07;;;;;;;;;;;;;;;3.41;78.93;102547.69;4973312;28;20015;-75
2023/03/03 06:03:32;;;;;;;;;;;;;;;3.38;78.14;102549.97;4990899;28;19926;-73
2023/03/03 06:05:57;;;;;;;;;;;;;;;3.40;78.72;102551.91;4973856;28;20320;-73
2023/03/03 06:08:23;;;;;;;;;;;;;;;3.47;78.39;102550.75;4990803;28;19933;-74
2023/03/03 06:10:48;;;;;;;;;;;;;;;3.51;78.15;102555.31;4991841;28;19922;-74
2023/03/03 06:13:13;;;;;;;;;;;;;;;3.55;77.69;102559.91;4991365;28;19922;-74
2023/03/03 06:15:39;;;;;;;;;;;;;;;3.58;77.66;102560.16;4988744;28;19934;-74
2023/03/03 06:18:04;;;;;;;;;;;;;;;3.60;78.08;102561.19;4991371;28;19925;-74
2023/03/03 06:20:29;;;;;;;;;;;;;;;3.62;77.55;102563.84;4990345;28;20345;-74
2023/03/03 06:22:55;;;;;;;;;;;;;;;3.64;77.75;102573.41;4992093;28;19926;-74
2023/03/03 06:25:20;;;;;;;;;;;;;;;3.67;77.26;102570.19;4991788;28;19921;-73
2023/03/03 06:27:45;;;;;;;;;;;;;;;3.66;77.72;102571.84;4991176;28;19928;-73
2023/03/03 06:30:11;;;;;;;;;;;;;;;3.66;77.56;102576.94;4991927;28;19922;-73
2023/03/03 06:32:37;;;;;;;;;;;;;;;3.68;77.26;102580.50;4990931;28;19917;-73
2023/03/03 06:35:02;;;;;;;;;;;;;;;3.68;77.09;102580.50;4992001;28;20356;-73
2023/03/03 06:37:28;;;;;;;;;;;;;;;3.71;77.07;102590.94;4989974;28;19922;-74
2023/03/03 06:39:53;;;;;;;;;;;;;;;3.72;76.99;102589.28;4991081;28;19932;-74
2023/03/03 06:42:19;;;;;;;;;;;;;;;3.71;77.39;102588.41;4991277;28;19921;-73
2023/03/03 06:44:45;;;;;;;;;;;;;;;3.69;77.45;102596.66;4990512;28;19917;-74
2023/03/03 06:47:10;;;;;;;;;;;;;;;3.63;77.93;102601.22;4990293;28;19940;-74
2023/03/03 06:49:35;;;;;;;;;;;;;;;3.60;78.16;102604.41;4990962;28;20152;-73
2023/03/03 06:52:07;;;;;;;;;;;;;;;3.61;77.52;102610.38;4990731;28;19925;-74
2023/03/03 06:54:33;;;;;;;;;;;;;;;3.63;77.80;102606.31;4990644;28;19922;-74
2023/03/03 06:57:00;;;;;;;;;;;;;;;3.65;77.43;102618.41;4990685;28;20306;-74
2023/03/03 06:59:26;;;;;;;;;;;;;;;3.62;77.97;102615.59;4990616;28;19971;-74
2023/03/03 07:01:51;;;;;;;;;;;;;;;3.60;77.56;102616.25;4988960;28;19925;-74
2023/03/03 07:04:28;;;;;;;;;;;;;;;3.61;77.26;102624.00;4988588;28;19921;-74
2023/03/03 07:06:54;;;;;;;;;;;;;;;3.62;77.14;102617.25;4989259;28;20380;-74
2023/03/03 07:09:23;;;;;;;;;;;;;;;3.65;77.51;102613.31;4985981;28;19922;-75
2023/03/03 07:11:49;;;;;;;;;;;;;;;3.67;78.04;102614.34;4967896;28;20487;-75
2023/03/03 07:14:17;;;;;;;;;;;;;;;3.66;77.59;102617.66;4989059;28;19922;-75
2023/03/03 07:16:42;;;;;;;;;;;;;;;3.67;77.71;102621.97;4988662;28;19922;-75
2023/03/03 07:19:16;;;;;;;;;;;;;;;3.69;78.01;102624.63;4990873;28;20060;-74
2023/03/03 07:21:41;;;;;;;;;;;;;;;3.67;77.73;102616.88;4986709;28;19944;-73
2023/03/03 07:24:13;;;;;;;;;;;;;;;3.67;77.73;102623.63;4992044;28;19992;-73
2023/03/03 07:26:38;;;;;;;;;;;;;;;3.66;77.73;102627.81;4974169;28;19914;-74
2023/03/03 07:29:17;;;;;;;;;;;;;;;3.66;77.74;102625.28;4990334;28;19929;-74
2023/03/03 07:31:46;;;;;;;;;;;;;;;3.66;78.80;102632.91;4989880;28;20288;-74
2023/03/03 07:34:20;;;;;;;;;;;;;;;3.67;78.16;102631.25;4990047;28;20009;-74
2023/03/03 07:36:45;;;;;;;;;;;;;;;3.68;77.78;102636.47;4991985;28;20020;-74
2023/03/03 07:39:16;;;;;;;;;;;;;;;3.70;77.98;102640.06;4987757;28;20397;-73
2023/03/03 07:41:42;;;;;;;;;;;;;;;3.69;77.61;102625.53;4973151;28;20332;-73
2023/03/03 07:44:28;;;;;;;;;;;;;;;3.74;77.86;102642.06;4989030;28;20024;-73
2023/03/03 07:46:53;;;;;;;;;;;;;;;3.70;78.13;102647.69;4989302;28;19918;-73
2023/03/03 07:49:35;;;;;;;;;;;;;;;3.66;77.86;102650.72;4987528;28;19922;-73
2023/03/03 07:52:15;;;;;;;;;;;;;;;3.65;77.82;102651.50;4988832;28;19925;-74
2023/03/03 07:54:42;;;;;;;;;;;;;;;3.75;77.61;102658.22;4988680;28;19918;-73
2023/03/03 07:57:10;;;;;;;;;;;;;;;3.82;77.44;102659.63;4989687;28;19921;-73
2023/03/03 07:59:36;;;;;;;;;;;;;;;3.86;78.32;102662.56;4988315;28;19962;-73
2023/03/03 08:02:06;;;;;;;;;;;;;;;3.89;77.77;102661.94;4989444;28;19944;-74
2023/03/03 08:04:34;;;;;;;;;;;;;;;3.91;77.81;102663.84;4987688;28;19917;-73
2023/03/03 08:07:00;;;;;;;;;;;;;;;3.90;77.94;102662.06;4988893;28;19918;-73
2023/03/03 08:09:29;;;;;;;;;;;;;;;3.94;77.68;102658.09;4989201;28;19922;-73
2023/03/03 08:12:00;;;;;;;;;;;;;;;3.92;77.50;102664.72;4988710;28;19917;-73
2023/03/03 08:14:32;;;;;;;;;;;;;;;3.89;77.81;102670.47;4989483;28;19918;-74
2023/03/03 08:16:57;;;;;;;;;;;;;;;3.90;77.89;102669.69;4988588;28;20024;-73
2023/03/03 08:19:23;;;;;;;;;;;;;;;3.95;77.60;102672.63;4987527;28;19953;-74
2023/03/03 08:21:48;;;;;;;;;;;;;;;3.97;77.24;102676.19;4989581;28;20307;-74
2023/03/03 08:24:13;;;;;;;;;;;;;;;3.95;77.54;102677.72;4989208;28;20015;-73
2023/03/03 08:26:39;;;;;;;;;;;;;;;3.92;77.41;102677.44;4990281;28;19918;-74
2023/03/03 08:29:04;;;;;;;;;;;;;;;3.89;77.41;102677.22;4988827;28;19922;-73
2023/03/03 08:31:29;;;;;;;;;;;;;;;3.88;77.68;102688.13;4989707;28;20016;-73
2023/03/03 08:33:54;;;;;;;;;;;;;;;3.86;77.17;102690.56;4988618;28;19933;-73
2023/03/03 08:36:20;;;;;;;;;;;;;;;3.90;77.41;102696.81;4972264;28;19924;-73
2023/03/03 08:38:45;;;;;;;;;;;;;;;3.90;77.61;102692.59;4989085;28;20380;-73
2023/03/03 08:41:11;;;;;;;;;;;;;;;3.89;77.58;102703.56;4991707;28;19922;-73
2023/03/03 08:43:36;;;;;;;;;;;;;;;3.86;77.65;102698.19;4988456;28;19972;-73
2023/03/03 08:46:02;;;;;;;;;;;;;;;3.84;77.37;102699.72;4988832;28;19932;-73
2023/03/03 08:48:28;;;;;;;;;;;;;;;3.73;77.75;102698.81;4989631;28;19918;-73
2023/03/03 08:50:53;;;;;;;;;;;;;;;3.66;78.01;102696.50;4989574;28;19914;-73
2023/03/03 08:53:22;;;;;;;;;;;;;;;3.58;78.28;102701.69;4989865;28;19959;-73
2023/03/03 08:55:47;;;;;;;;;;;;;;;3.52;78.40;102704.63;4989089;28;19922;-73
2023/03/03 08:58:16;;;;;;;;;;;;;;;3.52;78.97;102712.25;4989067;28;19924;-73
2023/03/03 09:00:42;;;;;;;;;;;;;;;3.50;78.87;102703.59;4972847;28;20060;-73
2023/03/03 09:03:10;;;;;;;;;;;;;;;3.48;79.90;102707.66;4989107;28;20024;-73
2023/03/03 09:05:36;;;;;;;;;;;;;;;3.46;80.16;102705.00;4989244;28;21315;-73
2023/03/03 09:08:02;;;;;;;;;;;;;;;3.50;80.20;102711.22;4989602;28;20288;-73
2023/03/03 09:10:29;;;;;;;;;;;;;;;3.54;79.84;102710.72;4989437;28;19914;-73
2023/03/03 09:13:00;;;;;;;;;;;;;;;3.59;79.54;102709.47;4990159;28;20372;-73
2023/03/03 09:15:29;;;;;;;;;;;;;;;3.66;79.51;102714.31;4989304;28;19925;-73
2023/03/03 09:17:59;;;;;;;;;;;;;;;3.71;79.57;102707.97;4987160;28;19950;-73
2023/03/03 09:20:32;;;;;;;;;;;;;;;3.73;79.67;102714.06;4989031;28;19922;-73
2023/03/03 09:22:58;;;;;;;;;;;;;;;3.75;80.13;102704.91;4989480;28;19926;-73
2023/03/03 09:25:33;;;;;;;;;;;;;;;3.80;79.69;102712.94;4992527;28;19941;-73
2023/03/03 09:27:59;;;;;;;;;;;;;;;3.85;79.22;102709.13;4992474;28;19921;-74
2023/03/03 09:30:24;;;;;;;;;;;;;;;3.92;79.24;102716.53;4974927;28;19922;-73
2023/03/03 09:32:50;;;;;;;;;;;;;;;3.99;79.23;102720.47;4974633;28;20488;-73
2023/03/03 09:35:27;;;;;;;;;;;;;;;4.08;79.09;102717.81;4992045;28;19926;-73
2023/03/03 09:37:53;;;;;;;;;;;;;;;4.10;79.14;102711.19;4992835;28;19921;-73
2023/03/03 09:40:38;;;;;;;;;;;;;;;4.15;79.65;102715.91;4991987;28;19951;-73
2023/03/03 09:43:08;;;;;;;;;;;;;;;4.16;78.88;102721.88;4991354;28;19925;-73
2023/03/03 09:45:49;;;;;;;;;;;;;;;4.13;79.03;102731.84;4991009;28;19925;-73
2023/03/03 09:48:23;;;;;;;;;;;;;;;4.12;78.70;102727.47;4986884;28;19921;-73
2023/03/03 09:50:51;;;;;;;;;;;;;;;4.12;78.50;102730.03;4992489;28;20400;-73
2023/03/03 09:53:17;;;;;;;;;;;;;;;4.09;78.20;102728.13;4995059;28;19969;-73
2023/03/03 09:55:45;;;;;;;;;;;;;;;4.12;78.44;102725.81;4992590;28;19918;-73
2023/03/03 09:58:19;;;;;;;;;;;;;;;4.19;78.46;102719.63;4991177;28;19924;-73
2023/03/03 10:00:57;;;;;;;;;;;;;;;4.28;78.75;102715.28;4990027;28;19913;-73
2023/03/03 10:03:34;;;;;;;;;;;;;;;4.35;78.54;102721.75;4990886;28;20000;-73
2023/03/03 10:06:18;;;;;;;;;;;;;;;4.42;78.46;102724.03;4992466;28;19936;-73
2023/03/03 10:08:55;;;;;;;;;;;;;;;4.47;78.22;102727.88;4991824;28;20053;-73
2023/03/03 10:11:27;;;;;;;;;;;;;;;4.49;78.76;102732.34;4986290;28;20328;-73
2023/03/03 10:13:59;;;;;;;;;;;;;;;4.50;77.85;102723.94;4992456;28;19964;-73
2023/03/03 10:16:31;;;;;;;;;;;;;;;4.47;77.80;102728.75;4990953;28;19926;-74
2023/03/03 10:19:13;;;;;;;;;;;;;;;4.49;77.87;102733.97;4976006;28;20383;-73
2023/03/03 10:21:42;;;;;;;;;;;;;;;4.49;77.78;102727.25;4992118;28;19913;-74
2023/03/03 10:24:20;;;;;;;;;;;;;;;4.55;77.80;102731.91;4991919;28;19991;-74
2023/03/03 10:27:04;;;;;;;;;;;;;;;4.54;77.67;102732.69;4986948;28;20391;-74
2023/03/03 10:29:42;;;;;;;;;;;;;;;4.51;78.05;102729.91;4990023;28;19917;-74
2023/03/03 10:32:24;;;;;;;;;;;;;;;4.56;77.58;102732.06;4991933;28;19922;-74
2023/03/03 10:34:52;;;;;;;;;;;;;;;4.55;77.54;102737.00;4990745;28;19914;-74
2023/03/03 10:37:23;;;;;;;;;;;;;;;4.55;77.78;102742.09;4988763;28;19930;-74
2023/03/03 10:40:09;;;;;;;;;;;;;;;4.57;77.53;102738.94;4983256;28;19922;-75
2023/03/03 10:42:37;;;;;;;;;;;;;;;4.59;77.47;102733.97;4984300;28;19925;-75
2023/03/03 10:45:05;;;;;;;;;;;;;;;4.64;77.35;102727.59;4987184;28;20396;-75
2023/03/03 10:47:50;;;;;;;;;;;;;;;4.65;77.33;102731.91;4970112;28;20752;-74
2023/03/03 10:50:20;;;;;;;;;;;;;;;4.64;77.36;102736.91;4986862;28;19921;-75
2023/03/03 10:52:48;;;;;;;;;;;;;;;4.64;77.11;102729.25;4969092;28;20380;-75
2023/03/03 10:55:16;;;;;;;;;;;;;;;4.68;77.12;102732.19;4987078;28;19944;-73
2023/03/03 10:57:44;;;;;;;;;;;;;;;4.77;77.44;102729.47;4986833;28;19921;-73
2023/03/03 11:00:16;;;;;;;;;;;;;;;4.82;77.03;102734.19;4986076;28;20340;-73
2023/03/03 11:02:52;;;;;;;;;;;;;;;4.88;76.82;102717.59;4985953;28;20365;-73
2023/03/03 11:05:36;;;;;;;;;;;;;;;4.92;76.60;102712.88;4969690;28;19962;-73
2023/03/03 11:08:08;;;;;;;;;;;;;;;4.99;76.79;102722.81;4986723;28;20504;-74
2023/03/03 11:10:49;;;;;;;;;;;;;;;5.06;76.56;102721.63;4985582;28;19926;-74
2023/03/03 11:13:14;;;;;;;;;;;;;;;5.14;76.77;102722.22;4985531;28;19952;-73
2023/03/03 11:15:52;;;;;;;;;;;;;;;5.20;76.36;102723.59;4971102;28;19972;-73
2023/03/03 11:18:20;;;;;;;;;;;;;;;5.19;75.99;102724.38;4985224;28;19918;-73
2023/03/03 11:20:54;;;;;;;;;;;;;;;5.20;76.24;102722.72;4987059;28;19922;-74
2023/03/03 11:23:37;;;;;;;;;;;;;;;5.22;76.11;102717.00;4983566;28;19923;-74
2023/03/03 11:26:11;;;;;;;;;;;;;;;5.27;75.97;102720.75;4987441;28;19988;-74
2023/03/03 11:28:37;;;;;;;;;;;;;;;5.32;75.57;102716.91;4985782;28;19960;-73
2023/03/03 11:31:21;;;;;;;;;;;;;;;5.36;76.30;102713.84;4986078;28;19961;-73
2023/03/03 11:33:53;;;;;;;;;;;;;;;5.45;75.86;102711.13;4986807;28;19925;-73
2023/03/03 11:36:27;;;;;;;;;;;;;;;5.52;75.47;102712.47;4986025;28;19936;-73
2023/03/03 11:39:03;;;;;;;;;;;;;;;5.58;75.38;102708.78;4986557;28;19918;-73
2023/03/03 11:41:31;;;;;;;;;;;;;;;5.59;74.31;102707.09;4985875;28;20361;-73
2023/03/03 11:43:59;;;;;;;;;;;;;;;5.57;74.43;102709.50;4986786;28;19918;-73
2023/03/03 11:46:28;;;;;;;;;;;;;;;5.74;74.98;102710.81;4986101;28;19932;-73
2023/03/03 11:49:12;;;;;;;;;;;;;;;5.93;74.77;102708.06;4987162;28;19918;-73
2023/03/03 11:51:40;;;;;;;;;;;;;;;6.14;73.95;102702.03;4971426;28;19944;-73
2023/03/03 11:54:09;;;;;;;;;;;;;;;6.22;73.32;102704.25;4987172;28;19917;-74
2023/03/03 11:56:37;;;;;;;;;;;;;;;6.26;73.73;102703.72;4985646;28;19926;-73
2023/03/03 11:59:05;;;;;;;;;;;;;;;6.34;73.91;102695.84;4989177;28;19973;-73
2023/03/03 12:01:53;;;;;;;;;;;;;;;6.47;74.43;102696.75;4988204;28;19925;-74
2023/03/03 12:04:29;;;;;;;;;;;;;;;6.69;73.37;102697.56;4985280;28;19917;-73
2023/03/03 12:07:16;;;;;;;;;;;;;;;6.85;72.77;102696.97;4985435;28;21907;-73
2023/03/03 12:09:51;;;;;;;;;;;;;;;6.94;71.25;102696.00;4986083;28;20388;-73
2023/03/03 12:12:17;;;;;;;;;;;;;;;7.02;70.05;102693.09;4985323;28;20388;-73
2023/03/03 12:14:42;;;;;;;;;;;;;;;7.22;69.88;102693.75;4987837;28;19990;-73
2023/03/03 12:17:16;;;;;;;;;;;;;;;7.43;68.99;102689.22;4973076;28;20443;-73
2023/03/03 12:19:44;;;;;;;;;;;;;;;7.66;69.59;102689.94;4990452;28;19913;-73
2023/03/03 12:22:16;;;;;;;;;;;;;;;7.91;67.35;102679.69;4989509;28;19928;-74
2023/03/03 12:24:44;;;;;;;;;;;;;;;8.13;66.90;102677.78;4989428;28;19925;-73
2023/03/03 12:27:09;;;;;;;;;;;;;;;8.26;65.77;102674.38;4991327;28;19918;-74
2023/03/03 12:29:48;;;;;;;;;;;;;;;8.30;63.85;102666.97;4972247;28;20380;-73
2023/03/03 12:32:13;;;;;;;;;;;;;;;8.40;64.60;102665.94;4985321;28;20410;-73
2023/03/03 12:34:47;;;;;;;;;;;;;;;8.53;66.04;102665.06;4989341;28;19921;-74
2023/03/03 12:37:27;;;;;;;;;;;;;;;8.58;62.64;102663.69;4989894;28;19918;-73
2023/03/03 12:39:53;;;;;;;;;;;;;;;8.49;62.91;102668.19;4970848;28;20372;-74
2023/03/03 12:42:33;;;;;;;;;;;;;;;8.37;63.56;102660.59;4989555;28;19959;-74
2023/03/03 12:44:58;;;;;;;;;;;;;;;8.24;64.48;102652.84;4972341;28;20380;-74
2023/03/03 12:47:26;;;;;;;;;;;;;;;8.17;65.09;102654.13;4989548;28;19921;-74
2023/03/03 12:49:57;;;;;;;;;;;;;;;8.15;65.38;102652.25;5004981;28;20052;-74
2023/03/03 12:52:35;;;;;;;;;;;;;;;8.07;65.93;102652.66;4989621;28;19914;-74
2023/03/03 12:55:09;;;;;;;;;;;;;;;8.10;66.22;102651.06;4972643;28;20052;-74